Arlington, Washington
Current Conditions -  °F | °C
As of 6:35 AM on Sunday 23 Nov 2014 (Local Time) from KAWO Reporting Station
Overcast Overcast  
Wind Chill: 40°   Ceiling: 1900
Heat Index: 46°   Visibility: 10mi
Dew Point: 41°   Wind: 15mph
Humidity: 81%   Direction: 180°S
Pressure: 30.08"   Gusts: 20mph
Location:  48.2°N, 122.13°W
Report Text: KAWO 231435Z AUTO 18013G17KT 10SM BKN019 BKN024 OVC044 08/05 A3008 RMK AO1
Loading
Personal Weather Stations






























Interactive Weather Map New forecast layout! Learn more

10-Day Weather Forecast

Advertisements
Track Severe Weather on mobile